Time;durP1;ratioP1;P1;durP2;ratioP2;P2;SDS_P1;SDS_P2;PMS_P1;PMS_P2;Temp;Humidity;BMP_temperature;BMP_pressure;BME280_temperature;BME280_humidity;BME280_pressure;Samples;Min_cycle;Max_cycle;Signal;HPM_P1;HPM_P2
2023/03/26 00:02:01;;;;;;;13.50;7.40;;;;;;;7.71;95.19;98590.52;79569;1298;3011626;-67
2023/03/26 00:04:28;;;;;;;15.50;8.20;;;;;;;7.95;94.57;98579.38;78397;1298;3051477;-67
2023/03/26 00:06:56;;;;;;;14.70;9.00;;;;;;;7.87;93.59;98575.86;79774;1295;3014627;-65
2023/03/26 00:09:22;;;;;;;16.00;9.80;;;;;;;7.58;95.17;98568.27;79716;1294;3011716;-68
2023/03/26 00:11:53;;;;;;;13.60;8.30;;;;;;;7.35;96.31;98572.13;78435;1298;3049539;-68
2023/03/26 00:14:25;;;;;;;8.20;4.90;;;;;;;7.33;97.12;98564.95;79664;1298;3011380;-69
2023/03/26 00:16:53;;;;;;;11.20;7.00;;;;;;;7.77;95.98;98562.06;78401;1298;3052957;-66
2023/03/26 00:19:24;;;;;;;14.10;7.80;;;;;;;8.04;93.69;98562.05;79508;1297;3012172;-70
2023/03/26 00:21:52;;;;;;;12.30;7.30;;;;;;;7.97;93.33;98562.84;78391;1298;3026558;-66
2023/03/26 00:24:19;;;;;;;12.80;8.20;;;;;;;7.86;93.55;98569.47;79597;1298;3018376;-65
2023/03/26 00:26:52;;;;;;;14.20;8.70;;;;;;;7.52;94.40;98567.80;79655;1297;3011914;-66
2023/03/26 00:29:26;;;;;;;14.90;9.50;;;;;;;7.14;96.29;98576.36;78410;1298;3049743;-66
2023/03/26 00:31:53;;;;;;;12.00;7.70;;;;;;;7.03;97.64;98574.59;79618;1298;3011615;-65
2023/03/26 00:34:25;;;;;;;8.80;6.30;;;;;;;7.31;97.55;98564.18;78320;1298;3053304;-67
2023/03/26 00:36:53;;;;;;;15.00;8.00;;;;;;;7.67;94.51;98552.38;79590;1296;3011913;-67
2023/03/26 00:39:24;;;;;;;13.40;8.90;;;;;;;7.57;94.35;98551.98;78284;1298;3050387;-70
2023/03/26 00:41:53;;;;;;;15.80;9.60;;;;;;;7.32;95.50;98548.48;79663;1295;3013744;-65
2023/03/26 00:44:20;;;;;;;15.90;9.40;;;;;;;7.36;95.69;98546.45;79517;1295;3011567;-68
2023/03/26 00:46:53;;;;;;;16.30;9.00;;;;;;;7.18;96.28;98545.13;78391;1297;3050425;-67
2023/03/26 00:49:19;;;;;;;10.70;6.50;;;;;;;7.09;97.01;98546.20;79543;1298;3014013;-67
2023/03/26 00:51:46;;;;;;;13.30;7.30;;;;;;;7.49;96.24;98547.42;79261;1300;3011785;-66
2023/03/26 00:54:14;;;;;;;14.50;8.30;;;;;;;7.81;93.99;98541.05;78331;1295;3029490;-66
2023/03/26 00:56:45;;;;;;;13.40;8.30;;;;;;;7.79;92.75;98546.77;79402;1298;3011619;-73
2023/03/26 00:59:13;;;;;;;14.20;8.90;;;;;;;7.65;93.05;98541.55;78426;1297;3026891;-68
2023/03/26 01:01:39;;;;;;;15.80;9.10;;;;;;;7.44;93.94;98542.01;79534;1298;3013568;-65
2023/03/26 01:04:29;;;;;;;20.80;10.10;;;;;;;7.34;94.73;98539.48;79634;1296;3013207;-64
2023/03/26 01:06:59;;;;;;;11.00;5.90;;;;;;;7.24;95.60;98539.55;78396;1298;3053017;-68
2023/03/26 01:09:31;;;;;;;10.10;6.30;;;;;;;7.68;94.41;98533.14;79661;1294;3013024;-70
2023/03/26 01:12:03;;;;;;;13.10;7.90;;;;;;;8.25;91.30;98533.48;78367;1298;3051056;-67
2023/03/26 01:14:30;;;;;;;16.40;9.00;;;;;;;8.10;90.16;98533.09;79569;1298;3013081;-68
2023/03/26 01:17:01;;;;;;;16.60;9.30;;;;;;;7.74;91.78;98531.05;79418;1295;3011496;-70
2023/03/26 01:19:36;;;;;;;18.70;10.70;;;;;;;7.32;93.81;98532.06;78467;1297;3050338;-67
2023/03/26 01:22:09;;;;;;;16.70;9.60;;;;;;;7.36;94.11;98523.61;78991;1298;3013608;-67
2023/03/26 01:24:37;;;;;;;9.20;5.50;;;;;;;7.33;94.45;98518.43;79629;1298;3011845;-66
2023/03/26 01:27:08;;;;;;;14.00;7.60;;;;;;;7.92;93.31;98517.64;78404;1298;3054385;-66
2023/03/26 01:29:42;;;;;;;15.20;7.80;;;;;;;8.30;90.41;98512.07;79668;1297;3016069;-67
2023/03/26 01:32:18;;;;;;;17.30;9.40;;;;;;;8.32;89.28;98514.69;78469;1298;3052391;-67
2023/03/26 01:34:56;;;;;;;14.10;8.30;;;;;;;7.96;90.44;98513.95;78380;1298;3056559;-66
2023/03/26 01:37:31;;;;;;;18.30;9.20;;;;;;;7.63;92.06;98509.06;78225;1298;3052675;-68
2023/03/26 01:40:11;;;;;;;14.80;9.10;;;;;;;7.36;93.57;98510.73;78301;1296;3053341;-66
2023/03/26 01:42:47;;;;;;;11.00;6.70;;;;;;;7.15;95.03;98509.98;78420;1308;3050354;-66
2023/03/26 01:45:17;;;;;;;13.80;7.80;;;;;;;7.65;94.47;98503.17;78401;1308;3051372;-65
2023/03/26 01:47:44;;;;;;;18.00;8.70;;;;;;;8.01;91.82;98505.95;79658;1297;3011625;-69
2023/03/26 01:50:14;;;;;;;11.80;7.30;;;;;;;8.04;90.79;98500.15;78961;1296;3011642;-66
2023/03/26 01:52:42;;;;;;;14.40;8.20;;;;;;;7.81;91.29;98497.59;79723;1298;3011661;-66
2023/03/26 01:55:13;;;;;;;17.90;9.60;;;;;;;7.69;91.88;98496.51;79680;1295;3011653;-66
2023/03/26 01:57:47;;;;;;;14.90;8.30;;;;;;;7.29;93.48;98497.45;78406;1296;3054206;-66
2023/03/26 02:00:19;;;;;;;7.30;5.10;;;;;;;7.13;94.70;98491.30;79473;1298;3013419;-66
2023/03/26 02:03:03;;;;;;;10.20;6.10;;;;;;;7.62;93.35;98490.80;78444;1298;3052950;-67
2023/03/26 02:05:40;;;;;;;13.00;7.40;;;;;;;8.00;90.50;98489.59;78256;1298;3053232;-68
2023/03/26 02:08:19;;;;;;;18.50;8.60;;;;;;;7.69;90.51;98489.90;78202;1294;3069481;-68
2023/03/26 02:10:50;;;;;;;15.20;8.90;;;;;;;7.29;92.16;98497.04;78269;1299;3052227;-67
2023/03/26 02:13:20;;;;;;;16.00;9.00;;;;;;;6.92;94.55;98501.44;79551;1299;3011565;-66
2023/03/26 02:15:55;;;;;;;16.80;8.80;;;;;;;6.76;95.96;98499.25;78225;1295;3047118;-66
2023/03/26 02:18:34;;;;;;;15.40;6.80;;;;;;;6.62;96.94;98510.52;78919;1301;3013002;-66
2023/03/26 02:21:08;;;;;;;15.20;8.60;;;;;;;6.88;96.14;98504.13;78222;1296;3054402;-70
2023/03/26 02:23:40;;;;;;;14.70;7.20;;;;;;;7.31;94.18;98494.35;78062;1300;3051169;-68
2023/03/26 02:26:10;;;;;;;19.20;8.50;;;;;;;7.11;93.23;98497.67;79785;1302;3011876;-69
2023/03/26 02:28:45;;;;;;;15.40;8.00;;;;;;;7.00;93.27;98494.15;78442;1299;3053224;-65
2023/03/26 02:31:14;;;;;;;13.50;8.80;;;;;;;6.78;93.71;98494.07;79848;1297;3013476;-65
2023/03/26 02:33:46;;;;;;;14.40;8.50;;;;;;;6.75;94.46;98490.29;79062;1298;3011907;-69
2023/03/26 02:36:13;;;;;;;9.00;5.70;;;;;;;6.64;95.40;98490.79;79515;1298;3011619;-69
2023/03/26 02:38:42;;;;;;;13.40;6.50;;;;;;;7.13;93.99;98486.60;78385;1298;3028172;-65
2023/03/26 02:41:13;;;;;;;14.10;8.20;;;;;;;7.24;92.36;98490.08;79865;1298;3013081;-67
2023/03/26 02:43:56;;;;;;;15.20;7.40;;;;;;;7.20;92.18;98485.79;78598;1298;3053405;-67
2023/03/26 02:46:26;;;;;;;13.90;8.20;;;;;;;7.04;92.69;98490.59;79749;1298;3011665;-66
2023/03/26 02:49:14;;;;;;;16.10;8.20;;;;;;;6.85;93.92;98491.58;78108;1298;3053890;-65
2023/03/26 02:51:42;;;;;;;13.70;8.20;;;;;;;6.75;94.80;98486.64;79552;1298;3011654;-66
2023/03/26 02:54:23;;;;;;;8.60;5.10;;;;;;;6.69;95.32;98487.52;78227;1300;3051141;-68
2023/03/26 02:57:11;;;;;;;13.60;6.20;;;;;;;7.03;94.42;98484.20;78300;1298;3058345;-68
2023/03/26 02:59:49;;;;;;;14.20;7.00;;;;;;;7.28;92.31;98482.14;78390;1297;3050946;-67
2023/03/26 03:02:43;;;;;;;12.60;7.80;;;;;;;7.13;92.66;98477.48;78341;1298;3055492;-69
2023/03/26 03:05:37;;;;;;;20.00;7.90;;;;;;;6.89;93.11;98474.45;78206;1307;3051758;-68
2023/03/26 03:08:29;;;;;;;13.70;7.90;;;;;;;6.70;94.36;98471.27;78188;1298;3053584;-68
2023/03/26 03:11:20;;;;;;;12.80;7.40;;;;;;;6.36;95.61;98472.23;78423;1298;3054129;-67
2023/03/26 03:13:47;;;;;;;10.50;5.40;;;;;;;6.48;96.09;98471.19;79609;1297;3012802;-65
2023/03/26 03:16:21;;;;;;;11.50;6.50;;;;;;;6.96;94.69;98466.17;78449;1294;3051918;-67
2023/03/26 03:18:53;;;;;;;11.40;6.70;;;;;;;7.12;92.47;98461.20;79685;1298;3013561;-68
2023/03/26 03:21:23;;;;;;;10.20;6.20;;;;;;;7.00;93.24;98460.58;78406;1298;3055600;-65
2023/03/26 03:23:50;;;;;;;13.50;7.70;;;;;;;6.91;93.48;98459.40;79539;1299;3013370;-65
2023/03/26 03:26:20;;;;;;;18.20;8.80;;;;;;;6.81;93.97;98458.60;79665;1298;3011771;-66
2023/03/26 03:28:56;;;;;;;18.80;8.20;;;;;;;6.38;95.62;98460.98;78257;1296;3069777;-68
2023/03/26 03:31:23;;;;;;;11.20;5.10;;;;;;;6.17;96.98;98466.73;79716;1294;3013707;-68
2023/03/26 03:33:50;;;;;;;11.20;5.80;;;;;;;6.47;95.97;98461.81;79414;1298;3013817;-65
2023/03/26 03:36:21;;;;;;;12.30;6.00;;;;;;;6.59;94.70;98455.36;78264;1296;3055105;-69
2023/03/26 03:38:50;;;;;;;14.60;6.50;;;;;;;6.54;93.88;98457.63;79651;1297;3013130;-65
2023/03/26 03:41:19;;;;;;;10.80;6.40;;;;;;;6.20;95.57;98461.85;78401;1298;3053030;-68
2023/03/26 03:43:46;;;;;;;11.80;6.80;;;;;;;6.00;97.07;98453.27;79346;1301;3018565;-70
2023/03/26 03:46:19;;;;;;;13.70;6.00;;;;;;;5.87;97.86;98455.25;79153;1294;3011343;-69
2023/03/26 03:48:49;;;;;;;9.00;5.30;;;;;;;5.73;98.79;98462.44;79518;1296;3011720;-68
2023/03/26 03:51:21;;;;;;;7.60;5.10;;;;;;;6.23;98.08;98440.30;78377;1298;3058186;-69
2023/03/26 03:54:04;;;;;;;11.00;5.40;;;;;;;6.27;96.49;98431.57;78366;1298;3051223;-67
2023/03/26 03:56:56;;;;;;;9.70;5.60;;;;;;;6.14;96.63;98439.27;78261;1301;3054205;-67
2023/03/26 03:59:28;;;;;;;11.00;6.10;;;;;;;5.86;98.35;98445.19;79627;1298;3011580;-65
2023/03/26 04:01:56;;;;;;;11.60;6.30;;;;;;;5.83;99.61;98447.48;78210;1301;3053210;-66
2023/03/26 04:04:33;;;;;;;6.10;3.80;;;;;;;5.75;99.93;98453.68;79007;1295;3012046;-66
2023/03/26 04:07:05;;;;;;;9.70;4.20;;;;;;;6.12;99.94;98452.45;79639;1298;3011511;-67
2023/03/26 04:09:47;;;;;;;9.10;5.30;;;;;;;6.44;100.00;98435.73;78078;1299;3068801;-67
2023/03/26 04:12:16;;;;;;;7.70;4.60;;;;;;;6.24;100.00;98445.10;79528;1294;3013198;-70
2023/03/26 04:14:56;;;;;;;8.90;5.50;;;;;;;6.12;100.00;98448.63;78427;1295;3057219;-69
2023/03/26 04:17:23;;;;;;;9.70;6.60;;;;;;;5.90;100.00;98462.02;79276;1298;3019092;-66
2023/03/26 04:19:54;;;;;;;5.80;4.00;;;;;;;5.75;100.00;98469.66;79642;1294;3013425;-66
2023/03/26 04:22:33;;;;;;;7.00;4.40;;;;;;;6.10;100.00;98458.64;78370;1308;3052645;-67
2023/03/26 04:25:04;;;;;;;7.20;5.10;;;;;;;6.10;100.00;98450.96;78393;1298;3053496;-68
2023/03/26 04:27:46;;;;;;;10.60;5.50;;;;;;;6.09;100.00;98444.62;78343;1297;3068753;-65
2023/03/26 04:30:41;;;;;;;9.60;6.00;;;;;;;5.98;100.00;98447.63;78103;1300;3052760;-67
2023/03/26 04:33:30;;;;;;;10.30;5.10;;;;;;;5.82;100.00;98459.88;78161;1301;3058367;-66
2023/03/26 04:36:01;;;;;;;6.90;3.90;;;;;;;5.65;100.00;98471.57;79534;1295;3015652;-66
2023/03/26 04:38:32;;;;;;;7.90;4.70;;;;;;;5.88;100.00;98455.88;78168;1301;3049714;-68
2023/03/26 04:41:00;;;;;;;6.70;4.20;;;;;;;5.96;100.00;98453.87;79651;1295;3012063;-68
2023/03/26 04:43:49;;;;;;;8.50;4.30;;;;;;;6.04;100.00;98451.15;78543;1298;3053031;-67
2023/03/26 04:46:44;;;;;;;9.30;4.90;;;;;;;5.81;100.00;98460.27;78406;1298;3070006;-69
2023/03/26 04:49:20;;;;;;;8.40;5.20;;;;;;;5.80;100.00;98469.34;78434;1306;3052126;-65
2023/03/26 04:51:47;;;;;;;3.60;3.20;;;;;;;5.61;100.00;98487.27;79684;1297;3011891;-69
2023/03/26 04:54:35;;;;;;;7.50;4.80;;;;;;;6.26;100.00;98467.24;78153;1295;3054126;-70
2023/03/26 04:57:38;;;;;;;8.00;4.40;;;;;;;6.40;100.00;98471.66;79733;1298;3012368;-66
2023/03/26 05:00:20;;;;;;;7.20;4.40;;;;;;;6.38;100.00;98463.27;78447;1298;3053498;-70
2023/03/26 05:02:54;;;;;;;;;;;;;;;6.06;100.00;98471.18;79675;1298;3011909;-67
2023/03/26 05:05:24;;;;;;;6.70;4.90;;;;;;;6.05;100.00;98463.10;78155;1298;3068543;-64
2023/03/26 05:07:51;;;;;;;6.50;3.00;;;;;;;5.96;100.00;98469.33;79447;1298;3015338;-67
2023/03/26 05:10:19;;;;;;;7.90;3.50;;;;;;;6.35;100.00;98460.66;79469;1295;3013035;-64
2023/03/26 05:13:10;;;;;;;5.10;3.60;;;;;;;6.83;100.00;98461.77;78476;1298;3053966;-68
2023/03/26 05:15:39;;;;;;;7.70;5.20;;;;;;;6.69;100.00;98459.14;79575;1298;3011356;-66
2023/03/26 05:18:17;;;;;;;6.10;3.80;;;;;;;6.55;100.00;98462.73;78201;1300;3053241;-68
2023/03/26 05:20:47;;;;;;;8.70;5.30;;;;;;;6.45;100.00;98466.48;79656;1298;3011968;-68
2023/03/26 05:23:20;;;;;;;5.70;2.60;;;;;;;6.08;100.00;98467.95;78373;1295;3069453;-67
2023/03/26 05:25:52;;;;;;;;;;;;;;;6.30;100.00;98466.00;79614;1295;3011632;-65
2023/03/26 05:28:23;;;;;;;6.90;3.80;;;;;;;6.59;100.00;98469.82;78402;1295;3058200;-66
2023/03/26 05:31:07;;;;;;;6.30;3.90;;;;;;;6.75;100.00;98467.65;78411;1298;3050138;-67
2023/03/26 05:33:38;;;;;;;7.90;4.20;;;;;;;6.68;100.00;98464.05;79505;1294;3011732;-68
2023/03/26 05:36:12;;;;;;;6.80;3.40;;;;;;;6.40;100.00;98470.10;78462;1295;3050498;-69
2023/03/26 05:38:41;;;;;;;5.90;3.90;;;;;;;6.29;100.00;98467.61;79744;1295;3013320;-66
2023/03/26 05:41:11;;;;;;;3.30;2.50;;;;;;;6.11;100.00;98473.19;78525;1298;3052823;-66
2023/03/26 05:43:43;;;;;;;4.90;2.80;;;;;;;6.41;100.00;98467.05;79696;1298;3013036;-67
2023/03/26 05:46:20;;;;;;;6.70;3.50;;;;;;;7.06;100.00;98462.98;78406;1298;3053174;-69
2023/03/26 05:48:52;;;;;;;6.30;3.30;;;;;;;7.04;100.00;98461.38;79649;1296;3011616;-68
2023/03/26 05:51:24;;;;;;;5.50;3.10;;;;;;;6.56;100.00;98463.06;78057;1295;3048918;-64
2023/03/26 05:54:00;;;;;;;8.10;4.10;;;;;;;6.66;100.00;98458.64;78439;1296;3052888;-67
2023/03/26 05:57:03;;;;;;;6.20;3.90;;;;;;;6.18;100.00;98463.19;78349;1298;3052077;-67
2023/03/26 06:00:10;;;;;;;4.70;2.40;;;;;;;6.24;100.00;98458.70;77910;1301;3053270;-65
2023/03/26 06:02:47;;;;;;;4.40;2.80;;;;;;;6.77;100.00;98456.23;78491;1298;3053479;-65
2023/03/26 06:05:44;;;;;;;4.70;3.10;;;;;;;7.15;100.00;98457.70;78388;1295;3070648;-69
2023/03/26 06:08:15;;;;;;;;;;;;;;;6.77;100.00;98467.86;79623;1298;3011635;-65
2023/03/26 06:10:50;;;;;;;4.50;3.30;;;;;;;6.47;100.00;98462.73;78429;1297;3055512;-66
2023/03/26 06:13:16;;;;;;;6.90;3.30;;;;;;;6.44;100.00;98462.17;79475;1298;3013426;-66
2023/03/26 06:15:44;;;;;;;5.00;3.20;;;;;;;6.52;100.00;98465.20;79625;1295;3013397;-67
2023/03/26 06:18:36;;;;;;;4.30;2.40;;;;;;;6.40;100.00;98471.14;78325;1298;3052420;-67
2023/03/26 06:21:22;;;;;;;3.80;2.70;;;;;;;6.75;100.00;98470.59;78236;1296;3053760;-68
2023/03/26 06:23:53;;;;;;;4.20;3.10;;;;;;;6.91;100.00;98470.84;79535;1297;3011825;-68
2023/03/26 06:26:39;;;;;;;5.70;3.10;;;;;;;6.90;100.00;98472.32;78254;1301;3051868;-70
2023/03/26 06:29:25;;;;;;;4.50;3.20;;;;;;;6.87;100.00;98464.83;78252;1295;3057516;-67
2023/03/26 06:32:18;;;;;;;5.90;3.30;;;;;;;6.70;100.00;98458.58;78120;1295;3049832;-65
2023/03/26 06:34:55;;;;;;;5.20;3.50;;;;;;;6.42;100.00;98464.02;78211;1295;3054098;-68
2023/03/26 06:37:22;;;;;;;4.30;2.50;;;;;;;6.57;100.00;98463.17;79328;1301;3013361;-66
2023/03/26 06:39:56;;;;;;;4.70;2.70;;;;;;;6.99;100.00;98458.36;78019;1300;3052151;-66
2023/03/26 06:42:43;;;;;;;4.20;3.10;;;;;;;7.33;100.00;98455.22;78200;1295;3069178;-66
2023/03/26 06:45:31;;;;;;;5.50;3.70;;;;;;;6.84;100.00;98463.27;78091;1300;3052007;-70
2023/03/26 06:48:19;;;;;;;5.60;3.50;;;;;;;6.68;100.00;98455.70;78169;1300;3056192;-66
2023/03/26 06:50:57;;;;;;;8.80;3.20;;;;;;;6.66;100.00;98459.36;78279;1301;3051083;-66
2023/03/26 06:53:52;;;;;;;5.40;2.90;;;;;;;6.74;100.00;98457.77;78240;1300;3053907;-69
2023/03/26 06:56:38;;;;;;;5.30;3.00;;;;;;;7.27;100.00;98450.50;78053;1300;3050238;-68
2023/03/26 06:59:23;;;;;;;4.90;2.80;;;;;;;7.32;100.00;98448.12;78187;1300;3053396;-67
2023/03/26 07:02:10;;;;;;;6.30;3.80;;;;;;;7.46;100.00;98448.50;78218;1301;3052576;-66
2023/03/26 07:05:11;;;;;;;5.00;3.60;;;;;;;7.26;100.00;98449.68;78023;1295;3070171;-68
2023/03/26 07:07:58;;;;;;;9.70;3.90;;;;;;;7.26;100.00;98452.36;78228;1301;3052823;-67
2023/03/26 07:10:46;;;;;;;5.60;3.60;;;;;;;7.05;100.00;98450.30;78187;1301;3056979;-68
2023/03/26 07:13:27;;;;;;;3.30;2.70;;;;;;;7.13;100.00;98447.39;78202;1301;3049960;-65
2023/03/26 07:15:56;;;;;;;4.60;3.10;;;;;;;7.52;100.00;98445.13;79440;1295;3011925;-68
2023/03/26 07:18:56;;;;;;;6.00;2.90;;;;;;;7.88;100.00;98445.71;78037;1300;3051989;-68
2023/03/26 07:21:27;;;;;;;5.00;3.40;;;;;;;7.88;100.00;98449.91;79355;1300;3011546;-68
2023/03/26 07:23:56;;;;;;;7.00;4.20;;;;;;;7.52;100.00;98445.79;78288;1300;3052853;-69
2023/03/26 07:27:03;;;;;;;7.50;4.10;;;;;;;7.24;100.00;98451.77;78215;1300;3068345;-67
2023/03/26 07:29:42;;;;;;;7.50;4.60;;;;;;;7.20;100.00;98452.02;78134;1297;3050801;-69
2023/03/26 07:33:05;;;;;;;4.20;2.70;;;;;;;7.14;100.00;98453.11;78198;1300;3056915;-68
2023/03/26 07:35:52;;;;;;;5.90;3.10;;;;;;;7.45;100.00;98450.96;78177;1300;3049446;-67
2023/03/26 07:38:47;;;;;;;5.30;3.50;;;;;;;7.75;100.00;98452.20;78303;1295;3053841;-67
2023/03/26 07:42:04;;;;;;;5.40;3.50;;;;;;;7.46;100.00;98457.33;78196;1298;3050211;-65
2023/03/26 07:45:00;;;;;;;7.10;4.10;;;;;;;7.41;100.00;98453.80;78222;1300;3053335;-69
2023/03/26 07:47:48;;;;;;;5.90;4.40;;;;;;;7.11;100.00;98460.41;78231;1301;3053844;-69
2023/03/26 07:50:21;;;;;;;5.60;3.00;;;;;;;7.17;100.00;98452.88;79403;1301;3011513;-68
2023/03/26 07:53:03;;;;;;;5.50;3.40;;;;;;;7.63;100.00;98458.49;78249;1299;3052009;-68
2023/03/26 07:56:03;;;;;;;10.70;3.20;;;;;;;7.89;100.00;98455.05;78764;1296;3011660;-65
2023/03/26 07:59:04;;;;;;;8.50;3.40;;;;;;;7.69;100.00;98451.69;78163;1301;3055740;-69
2023/03/26 08:02:04;;;;;;;5.40;3.50;;;;;;;7.64;100.00;98449.55;78156;1298;3049243;-67
2023/03/26 08:05:09;;;;;;;6.50;3.60;;;;;;;7.67;100.00;98440.98;78228;1295;3054815;-70
2023/03/26 08:08:01;;;;;;;6.20;3.60;;;;;;;7.55;100.00;98441.94;78182;1300;3050588;-67
2023/03/26 08:10:41;;;;;;;4.50;2.60;;;;;;;7.46;100.00;98437.82;78145;1300;3053933;-66
2023/03/26 08:13:52;;;;;;;9.40;3.30;;;;;;;8.03;100.00;98432.73;78139;1304;3053287;-68
2023/03/26 08:16:30;;;;;;;8.00;4.30;;;;;;;8.19;100.00;98437.73;78258;1299;3067767;-69
2023/03/26 08:19:24;;;;;;;6.50;4.30;;;;;;;8.37;100.00;98429.42;78165;1295;3051401;-69
2023/03/26 08:21:53;;;;;;;9.20;4.70;;;;;;;8.15;100.00;98436.80;78151;1295;3057402;-67
2023/03/26 08:24:43;;;;;;;6.40;3.80;;;;;;;8.19;100.00;98433.77;79539;1296;3013276;-67
2023/03/26 08:27:22;;;;;;;8.80;5.00;;;;;;;7.97;100.00;98436.81;77945;1295;3051137;-66
2023/03/26 08:30:00;;;;;;;5.00;2.70;;;;;;;7.72;100.00;98443.09;78159;1300;3052044;-65
2023/03/26 08:32:28;;;;;;;7.10;4.00;;;;;;;8.22;100.00;98438.10;78173;1300;3052394;-64
2023/03/26 08:34:56;;;;;;;6.10;3.70;;;;;;;8.61;100.00;98446.80;79482;1298;3013028;-66
2023/03/26 08:37:23;;;;;;;7.80;3.80;;;;;;;8.70;100.00;98437.11;79457;1294;3011589;-66
2023/03/26 08:39:50;;;;;;;8.70;5.00;;;;;;;8.65;100.00;98434.48;78220;1298;3049137;-66
2023/03/26 08:42:42;;;;;;;10.20;5.00;;;;;;;8.39;100.00;98439.79;79436;1296;3015472;-70
2023/03/26 08:45:15;;;;;;;8.60;4.60;;;;;;;7.98;100.00;98447.21;78332;1300;3052559;-67
2023/03/26 08:48:14;;;;;;;8.70;5.10;;;;;;;7.79;100.00;98446.48;80163;1299;3014097;-67
2023/03/26 08:51:04;;;;;;;7.40;3.50;;;;;;;7.74;100.00;98445.08;78979;1298;3069644;-66
2023/03/26 08:53:41;;;;;;;6.60;4.00;;;;;;;8.40;100.00;98436.00;78889;1299;3051478;-69
2023/03/26 08:56:23;;;;;;;6.40;4.10;;;;;;;8.76;100.00;98435.36;78174;1301;3056946;-66
2023/03/26 08:59:12;;;;;;;10.00;5.30;;;;;;;8.60;100.00;98435.41;78185;1299;3050013;-70
2023/03/26 09:01:57;;;;;;;8.20;4.90;;;;;;;8.36;100.00;98435.27;78157;1295;3052650;-65
2023/03/26 09:04:55;;;;;;;7.80;5.00;;;;;;;8.39;100.00;98428.08;78329;1295;3049105;-69
2023/03/26 09:07:29;;;;;;;10.70;6.00;;;;;;;8.10;100.00;98433.47;78236;1297;3051902;-67
2023/03/26 09:10:08;;;;;;;6.20;3.60;;;;;;;7.75;100.00;98435.95;79491;1299;3011730;-67
2023/03/26 09:13:04;;;;;;;8.20;4.60;;;;;;;8.25;100.00;98430.17;78216;1295;3069092;-67
2023/03/26 09:15:50;;;;;;;11.20;5.60;;;;;;;8.67;100.00;98428.42;78204;1298;3052867;-66
2023/03/26 09:18:52;;;;;;;7.90;4.60;;;;;;;8.73;100.00;98425.95;78230;1295;3056685;-69
2023/03/26 09:21:26;;;;;;;11.00;5.50;;;;;;;8.43;100.00;98426.41;77992;1300;3050007;-70
2023/03/26 09:24:50;;;;;;;9.60;5.20;;;;;;;7.97;100.00;98421.63;79485;1295;3011456;-68
2023/03/26 09:27:37;;;;;;;14.20;8.10;;;;;;;8.21;100.00;98416.19;77737;1304;3050696;-66
2023/03/26 09:30:36;;;;;;;7.70;4.30;;;;;;;8.09;100.00;98413.70;77697;1304;3054181;-70
2023/03/26 09:33:46;;;;;;;9.70;4.80;;;;;;;8.54;100.00;98408.70;78141;1300;3052651;-68
2023/03/26 09:36:18;;;;;;;12.60;6.50;;;;;;;8.93;100.00;98408.64;78157;1301;3067501;-66
2023/03/26 09:38:52;;;;;;;12.00;6.40;;;;;;;9.02;100.00;98405.05;79434;1298;3012331;-67
2023/03/26 09:41:29;;;;;;;15.80;8.10;;;;;;;8.99;100.00;98401.75;78160;1295;3056320;-65
2023/03/26 09:44:22;;;;;;;14.50;7.60;;;;;;;8.64;100.00;98401.10;78161;1301;3050070;-67
2023/03/26 09:47:09;;;;;;;;;;;;;;;8.43;100.00;98398.30;78213;1295;3053697;-71
2023/03/26 09:49:52;;;;;;;11.20;6.10;;;;;;;8.15;100.00;98399.98;78294;1300;3050571;-66
2023/03/26 09:52:57;;;;;;;6.60;3.00;;;;;;;8.10;100.00;98390.95;78106;1300;3052644;-66
2023/03/26 09:55:50;;;;;;;9.90;4.80;;;;;;;8.73;100.00;98387.71;78274;1295;3051592;-65
2023/03/26 09:58:39;;;;;;;11.10;5.90;;;;;;;9.16;100.00;98389.72;78159;1300;3070453;-66
2023/03/26 10:01:19;;;;;;;11.40;6.60;;;;;;;9.21;100.00;98392.34;78274;1295;3050921;-67
2023/03/26 10:03:51;;;;;;;11.60;6.10;;;;;;;8.93;100.00;98388.02;78149;1297;3057636;-68
2023/03/26 10:06:27;;;;;;;12.50;6.10;;;;;;;8.79;100.00;98389.74;79448;1297;3013699;-68
2023/03/26 10:08:55;;;;;;;14.00;7.30;;;;;;;8.49;100.00;98392.30;78162;1299;3053446;-65
2023/03/26 10:11:47;;;;;;;14.90;7.10;;;;;;;8.44;100.00;98386.17;79435;1297;3013081;-69
2023/03/26 10:14:42;;;;;;;8.20;4.40;;;;;;;8.55;100.00;98381.64;78070;1300;3052738;-68
2023/03/26 10:17:30;;;;;;;11.20;5.80;;;;;;;9.13;100.00;98382.92;78061;1297;3069074;-67
2023/03/26 10:20:16;;;;;;;8.80;5.80;;;;;;;9.15;100.00;98379.52;78133;1300;3053248;-71
2023/03/26 10:22:45;;;;;;;14.40;7.80;;;;;;;8.98;100.00;98384.71;78181;1304;3056968;-67
2023/03/26 10:25:26;;;;;;;13.90;7.00;;;;;;;8.88;100.00;98385.06;79434;1297;3013585;-67
2023/03/26 10:28:12;;;;;;;13.60;7.30;;;;;;;8.73;100.00;98387.50;78134;1297;3052169;-66
2023/03/26 10:31:02;;;;;;;12.40;6.90;;;;;;;8.64;100.00;98384.70;78166;1300;3054830;-68
2023/03/26 10:33:55;;;;;;;16.30;8.30;;;;;;;8.34;100.00;98390.20;78265;1300;3053202;-70
2023/03/26 10:36:33;;;;;;;12.30;6.40;;;;;;;8.33;100.00;98389.01;78243;1300;3068718;-66
2023/03/26 10:39:24;;;;;;;12.30;6.30;;;;;;;9.11;100.00;98385.86;78149;1297;3052110;-67
2023/03/26 10:41:52;;;;;;;13.30;7.40;;;;;;;9.68;100.00;98382.66;78136;1298;3058102;-67
2023/03/26 10:44:31;;;;;;;15.60;8.10;;;;;;;9.62;100.00;98382.73;79395;1298;3013091;-67
2023/03/26 10:47:07;;;;;;;14.20;7.40;;;;;;;9.11;100.00;98382.77;78098;1301;3048486;-67
2023/03/26 10:49:58;;;;;;;12.80;7.60;;;;;;;8.81;100.00;98380.89;78034;1297;3051246;-67
2023/03/26 10:52:50;;;;;;;15.50;7.90;;;;;;;8.71;100.00;98373.33;78184;1301;3053072;-70
2023/03/26 10:55:40;;;;;;;19.30;7.60;;;;;;;8.66;100.00;98376.69;78150;1298;3068733;-68
2023/03/26 10:58:14;;;;;;;11.20;4.40;;;;;;;8.57;100.00;98375.23;78168;1298;3052023;-67
2023/03/26 11:00:58;;;;;;;11.60;5.30;;;;;;;9.21;100.00;98364.01;78084;1298;3057612;-65
2023/03/26 11:03:35;;;;;;;16.20;6.80;;;;;;;9.57;100.00;98360.20;78068;1300;3048495;-70
2023/03/26 11:06:16;;;;;;;11.80;5.90;;;;;;;9.39;100.00;98365.52;78163;1295;3054727;-67
2023/03/26 11:09:21;;;;;;;11.10;6.10;;;;;;;9.36;100.00;98366.79;78210;1301;3051816;-67
2023/03/26 11:12:20;;;;;;;12.50;6.30;;;;;;;9.32;100.00;98361.99;78226;1301;3053717;-69
2023/03/26 11:15:19;;;;;;;11.60;6.20;;;;;;;9.18;100.00;98371.61;78003;1299;3054237;-67
2023/03/26 11:17:59;;;;;;;16.40;6.50;;;;;;;8.93;100.00;98374.11;76343;1300;3069662;-65
2023/03/26 11:20:47;;;;;;;15.00;6.90;;;;;;;8.77;100.00;98363.70;78224;1296;3052992;-68
2023/03/26 11:23:34;;;;;;;10.60;4.90;;;;;;;8.94;100.00;98365.09;78188;1300;3057581;-67
2023/03/26 11:26:48;;;;;;;10.80;5.10;;;;;;;9.40;100.00;98359.70;78039;1298;3049393;-65
2023/03/26 11:29:45;;;;;;;15.70;6.50;;;;;;;9.62;100.00;98354.95;77673;1304;3054251;-68
2023/03/26 11:32:21;;;;;;;11.30;6.40;;;;;;;9.55;100.00;98356.81;77476;1303;3050540;-67
2023/03/26 11:35:02;;;;;;;9.20;5.50;;;;;;;9.23;100.00;98361.59;78803;1297;3013331;-65
2023/03/26 11:37:42;;;;;;;11.90;5.30;;;;;;;8.94;100.00;98358.10;78241;1301;3053071;-69
2023/03/26 11:40:20;;;;;;;8.50;5.30;;;;;;;9.02;100.00;98361.41;78145;1300;3053391;-68
2023/03/26 11:42:50;;;;;;;11.10;6.00;;;;;;;8.77;100.00;98358.08;77961;1295;3069384;-69
2023/03/26 11:45:18;;;;;;;10.50;6.10;;;;;;;8.72;100.00;98350.41;79506;1298;3013208;-66
2023/03/26 11:47:51;;;;;;;8.50;3.20;;;;;;;8.58;100.00;98351.89;78245;1300;3025739;-67
2023/03/26 11:50:26;;;;;;;9.40;4.20;;;;;;;9.06;100.00;98345.03;79372;1295;3011405;-68
2023/03/26 11:53:02;;;;;;;8.00;4.00;;;;;;;9.51;100.00;98338.30;78274;1299;3054056;-66
2023/03/26 11:55:31;;;;;;;9.30;4.60;;;;;;;9.69;100.00;98335.86;78712;1302;3012937;-68
2023/03/26 11:58:02;;;;;;;9.00;5.00;;;;;;;9.48;100.00;98333.77;79308;1295;3013411;-67
2023/03/26 12:00:31;;;;;;;12.80;5.80;;;;;;;9.34;100.00;98338.45;78195;1295;3052692;-66
2023/03/26 12:02:57;;;;;;;10.20;5.10;;;;;;;9.14;100.00;98338.48;79483;1301;3012992;-65
2023/03/26 12:05:33;;;;;;;8.10;5.10;;;;;;;9.16;100.00;98335.42;78814;1295;3013516;-66
2023/03/26 12:08:03;;;;;;;10.40;5.60;;;;;;;8.96;100.00;98336.10;79432;1295;3013098;-68
2023/03/26 12:10:38;;;;;;;10.20;5.40;;;;;;;8.88;100.00;98333.77;78027;1295;3055418;-66
2023/03/26 12:13:36;;;;;;;8.60;5.40;;;;;;;8.89;100.00;98331.38;78039;1295;3049796;-65